createdAt,value
2023-03-07T00:01:07.773Z,17
2023-03-07T00:06:25.474Z,19
2023-03-07T00:11:41.844Z,14
2023-03-07T00:16:58.258Z,18
2023-03-07T00:22:14.787Z,15
2023-03-07T00:27:31.036Z,12
2023-03-07T00:32:47.382Z,13
2023-03-07T00:38:03.540Z,41
2023-03-07T00:43:19.982Z,14
2023-03-07T00:48:36.520Z,18
2023-03-07T00:53:52.698Z,18
2023-03-07T00:59:09.101Z,19
2023-03-07T01:04:25.523Z,16
2023-03-07T01:09:41.862Z,16
2023-03-07T01:14:58.301Z,24
2023-03-07T01:20:14.680Z,15
2023-03-07T01:25:30.857Z,40
2023-03-07T01:30:47.242Z,20
2023-03-07T01:36:03.810Z,18
2023-03-07T01:41:20.011Z,19
2023-03-07T01:46:36.397Z,16
2023-03-07T01:51:52.750Z,16
2023-03-07T01:57:09.162Z,13
2023-03-07T02:02:25.881Z,14
2023-03-07T02:07:42.306Z,14
2023-03-07T02:12:59.157Z,12
2023-03-07T02:18:15.592Z,14
2023-03-07T02:23:31.974Z,15
2023-03-07T02:28:48.323Z,15
2023-03-07T02:34:04.733Z,14
2023-03-07T02:39:21.081Z,15
2023-03-07T02:44:37.467Z,12
2023-03-07T02:49:53.870Z,14
2023-03-07T02:55:10.255Z,16
2023-03-07T03:00:26.629Z,12
2023-03-07T03:05:43.042Z,19
2023-03-07T03:10:59.405Z,13
2023-03-07T03:16:15.958Z,14
2023-03-07T03:21:32.194Z,14
2023-03-07T03:26:48.560Z,16
2023-03-07T03:32:05.049Z,16
2023-03-07T03:37:21.316Z,15
2023-03-07T03:42:37.822Z,16
2023-03-07T03:47:54.104Z,16
2023-03-07T03:53:10.450Z,13
2023-03-07T03:58:26.849Z,14
2023-03-07T04:03:43.245Z,16
2023-03-07T04:08:59.608Z,11
2023-03-07T04:14:16.003Z,15
2023-03-07T04:19:32.391Z,14
2023-03-07T04:24:48.757Z,11
2023-03-07T04:30:05.159Z,11
2023-03-07T04:35:21.537Z,15
2023-03-07T04:40:37.907Z,15
2023-03-07T04:45:54.404Z,29
2023-03-07T04:51:10.722Z,14
2023-03-07T04:56:27.133Z,22
2023-03-07T05:01:43.563Z,16
2023-03-07T05:07:00.498Z,42
2023-03-07T05:12:16.918Z,18
2023-03-07T05:17:33.320Z,15
2023-03-07T05:22:49.659Z,18
2023-03-07T05:28:06.082Z,23
2023-03-07T05:33:22.461Z,17
2023-03-07T05:38:38.841Z,15
2023-03-07T05:43:55.257Z,29
2023-03-07T05:49:11.626Z,30
2023-03-07T05:54:28.092Z,18
2023-03-07T05:59:44.495Z,19
2023-03-07T06:05:00.870Z,22
2023-03-07T06:10:17.252Z,21
2023-03-07T06:15:33.679Z,24
2023-03-07T06:20:50.047Z,39
2023-03-07T06:26:06.523Z,33
2023-03-07T06:31:23.530Z,30
2023-03-07T06:36:39.850Z,29
2023-03-07T06:41:56.291Z,32
2023-03-07T06:47:12.698Z,28
2023-03-07T06:52:29.662Z,24
2023-03-07T06:57:46.087Z,33
2023-03-07T07:03:02.572Z,23
2023-03-07T07:08:19.453Z,29
2023-03-07T07:13:35.844Z,30
2023-03-07T07:18:52.269Z,29
2023-03-07T07:24:08.464Z,37
2023-03-07T07:29:24.839Z,37
2023-03-07T07:34:41.234Z,38
2023-03-07T07:39:57.669Z,36
2023-03-07T07:45:14.050Z,30
2023-03-07T07:50:30.454Z,20
2023-03-07T07:55:46.945Z,35
2023-03-07T08:01:03.221Z,28
2023-03-07T08:06:20.322Z,49
2023-03-07T08:11:36.691Z,19
2023-03-07T08:16:53.082Z,17
2023-03-07T08:22:09.442Z,14
2023-03-07T08:27:25.824Z,12
2023-03-07T08:32:42.303Z,15
2023-03-07T08:37:58.581Z,17
2023-03-07T08:43:15.518Z,20
2023-03-07T08:48:32.470Z,20
2023-03-07T08:53:48.720Z,18
2023-03-07T08:59:05.069Z,18
2023-03-07T09:04:21.462Z,17
2023-03-07T09:09:37.861Z,16
2023-03-07T09:14:54.268Z,18
2023-03-07T09:20:10.597Z,19
2023-03-07T09:25:27.036Z,20
2023-03-07T09:30:43.378Z,20
2023-03-07T09:35:59.834Z,25
2023-03-07T09:41:16.204Z,30
2023-03-07T09:46:32.559Z,35
2023-03-07T09:51:48.973Z,45
2023-03-07T09:57:05.468Z,31
2023-03-07T10:02:21.844Z,35
2023-03-07T10:07:38.295Z,29
2023-03-07T10:12:54.993Z,34
2023-03-07T10:18:11.711Z,33
2023-03-07T10:23:28.138Z,33
2023-03-07T10:28:44.535Z,40
2023-03-07T10:34:00.896Z,32
2023-03-07T10:39:17.429Z,37
2023-03-07T10:44:33.768Z,34
2023-03-07T10:49:50.178Z,29
2023-03-07T10:55:06.567Z,29
2023-03-07T11:00:23.032Z,30
2023-03-07T11:05:39.202Z,31
2023-03-07T11:10:55.605Z,31
2023-03-07T11:16:12.181Z,36
2023-03-07T11:21:28.419Z,34
2023-03-07T11:26:44.722Z,50
2023-03-07T11:32:14.947Z,47
2023-03-07T11:37:31.756Z,56
2023-03-07T11:42:48.773Z,52
2023-03-07T11:48:05.041Z,51
2023-03-07T11:53:22.274Z,51
2023-03-07T11:58:39.270Z,48
2023-03-07T12:03:55.677Z,40
2023-03-07T12:09:12.109Z,38
2023-03-07T12:14:28.486Z,32
2023-03-07T12:19:44.914Z,37
2023-03-07T12:25:01.316Z,26
2023-03-07T12:30:18.263Z,34
2023-03-07T12:35:34.709Z,23
2023-03-07T12:40:51.061Z,23
2023-03-07T12:46:07.241Z,34
2023-03-07T12:51:25.145Z,23
2023-03-07T12:56:40.346Z,24
2023-03-07T13:01:56.721Z,24
2023-03-07T13:07:13.139Z,22
2023-03-07T13:12:29.501Z,21
2023-03-07T13:17:46.444Z,33
2023-03-07T13:23:03.465Z,28
2023-03-07T13:28:19.792Z,13
2023-03-07T13:33:36.137Z,20
2023-03-07T13:38:52.557Z,17
2023-03-07T13:44:09.094Z,23
2023-03-07T13:49:26.513Z,16
2023-03-07T13:54:41.683Z,16
2023-03-07T13:59:58.022Z,13
2023-03-07T14:05:15.028Z,34
2023-03-07T14:10:31.366Z,14
2023-03-07T14:15:48.043Z,12
2023-03-07T14:21:04.175Z,16
2023-03-07T14:26:20.549Z,18
2023-03-07T14:31:37.488Z,83
2023-03-07T14:36:54.295Z,28
2023-03-07T14:42:10.997Z,27
2023-03-07T14:47:27.611Z,14
2023-03-07T14:52:44.647Z,18
2023-03-07T14:58:01.014Z,15
2023-03-07T15:03:17.462Z,15
2023-03-07T15:08:33.795Z,17
2023-03-07T15:13:50.155Z,15
2023-03-07T15:19:06.563Z,25
2023-03-07T15:24:22.922Z,16
2023-03-07T15:29:39.317Z,22
2023-03-07T15:34:55.745Z,16
2023-03-07T15:40:12.082Z,12
2023-03-07T15:45:28.542Z,13
2023-03-07T15:50:44.862Z,17
2023-03-07T15:56:01.464Z,18
2023-03-07T16:01:17.865Z,16
2023-03-07T16:06:35.966Z,10
2023-03-07T16:11:50.612Z,18
2023-03-07T16:17:07.020Z,16
2023-03-07T16:22:23.367Z,14
2023-03-07T16:27:39.763Z,18
2023-03-07T16:32:56.168Z,18
2023-03-07T16:38:12.524Z,18
2023-03-07T16:43:28.874Z,16
2023-03-07T16:48:45.289Z,16
2023-03-07T16:54:01.875Z,19
2023-03-07T16:59:18.010Z,18
2023-03-07T17:04:34.428Z,16
2023-03-07T17:09:50.799Z,31
2023-03-07T17:15:07.214Z,30
2023-03-07T17:20:24.128Z,40
2023-03-07T17:25:40.486Z,33
2023-03-07T17:30:57.270Z,44
2023-03-07T17:36:13.670Z,36
2023-03-07T17:41:29.773Z,39
2023-03-07T17:46:46.209Z,36
2023-03-07T17:52:02.620Z,42
2023-03-07T17:57:19.015Z,38
2023-03-07T18:02:36.179Z,52
2023-03-07T18:07:52.501Z,41
2023-03-07T18:13:09.778Z,50
2023-03-07T18:18:25.088Z,41
2023-03-07T18:23:41.826Z,43
2023-03-07T18:28:58.237Z,48
2023-03-07T18:34:14.429Z,48
2023-03-07T18:39:30.619Z,48
2023-03-07T18:44:47.021Z,39
2023-03-07T18:50:03.430Z,42
2023-03-07T18:55:20.196Z,38
2023-03-07T19:00:36.324Z,52
2023-03-07T19:05:52.734Z,35
2023-03-07T19:11:09.229Z,64
2023-03-07T19:16:25.688Z,36
2023-03-07T19:21:42.035Z,34
2023-03-07T19:26:58.423Z,36
2023-03-07T19:32:14.592Z,44
2023-03-07T19:37:30.755Z,53
2023-03-07T19:42:47.409Z,56
2023-03-07T19:48:04.406Z,47
2023-03-07T19:53:20.611Z,46
2023-03-07T19:58:36.994Z,30
2023-03-07T20:03:53.327Z,21
2023-03-07T20:09:09.760Z,26
2023-03-07T20:14:26.147Z,34
2023-03-07T20:19:43.092Z,27
2023-03-07T20:24:59.536Z,32
2023-03-07T20:30:15.626Z,32
2023-03-07T20:35:32.314Z,20
2023-03-07T20:40:48.665Z,15
2023-03-07T20:46:05.276Z,53
2023-03-07T20:51:21.616Z,22
2023-03-07T20:56:38.573Z,45
2023-03-07T21:01:54.929Z,13
2023-03-07T21:07:11.350Z,17
2023-03-07T21:12:28.288Z,19
2023-03-07T21:17:44.636Z,14
2023-03-07T21:23:01.589Z,15
2023-03-07T21:28:17.988Z,14
2023-03-07T21:33:34.314Z,15
2023-03-07T21:38:50.730Z,15
2023-03-07T21:44:07.084Z,14
2023-03-07T21:49:23.480Z,14
2023-03-07T21:54:39.885Z,16
2023-03-07T21:59:56.226Z,19
2023-03-07T22:05:12.612Z,13
2023-03-07T22:10:29.015Z,19
2023-03-07T22:15:45.420Z,28
2023-03-07T22:21:01.775Z,25
2023-03-07T22:26:18.184Z,18
2023-03-07T22:31:34.574Z,18
2023-03-07T22:36:50.916Z,13
2023-03-07T22:42:07.303Z,13
2023-03-07T22:47:24.390Z,13
2023-03-07T22:52:40.763Z,13
2023-03-07T22:57:57.171Z,18
2023-03-07T23:03:14.133Z,34
2023-03-07T23:08:30.518Z,17
2023-03-07T23:13:46.932Z,21
2023-03-07T23:19:03.308Z,16
2023-03-07T23:24:19.649Z,16
2023-03-07T23:29:36.596Z,18
2023-03-07T23:34:52.969Z,20
2023-03-07T23:40:09.338Z,20
2023-03-07T23:45:25.777Z,18
2023-03-07T23:50:42.146Z,17
2023-03-07T23:55:58.523Z,16
